Time;durP1;ratioP1;P1;durP2;ratioP2;P2;SDS_P1;SDS_P2;PMS_P1;PMS_P2;Temp;Humidity;BMP_temperature;BMP_pressure;BME280_temperature;BME280_humidity;BME280_pressure;Samples;Min_cycle;Max_cycle;Signal;HPM_P1;HPM_P2
2023/04/23 00:01:59;;;;;;;5.2;3.6;;;;;;;11.58;72.49414;932.4433;;;;
2023/04/23 00:04:24;;;;;;;6.9;3.6;;;;;;;11.61;72.39551;932.5373;;;;
2023/04/23 00:06:53;;;;;;;6.5;3.2;;;;;;;11.56;72.47949;932.5183;;;;
2023/04/23 00:09:18;;;;;;;7.1;3.4;;;;;;;11.65;72.07129;932.5262;;;;
2023/04/23 00:11:44;;;;;;;5.9;3.1;;;;;;;11.67;72.0752;932.4192;;;;
2023/04/23 00:14:10;;;;;;;4.5;2.8;;;;;;;11.68;72.30469;932.4495;;;;
2023/04/23 00:16:37;;;;;;;5.1;2.8;;;;;;;11.64;71.7832;932.4458;;;;
2023/04/23 00:19:05;;;;;;;5.2;3;;;;;;;11.66;72.3125;932.3508;;;;
2023/04/23 00:21:30;;;;;;;5.1;2.9;;;;;;;11.45;72.96289;932.3881;;;;
2023/04/23 00:23:59;;;;;;;6.9;3.9;;;;;;;11.15;74.37695;932.3764;;;;
2023/04/23 00:26:24;;;;;;;4.8;3.3;;;;;;;11.03;75.01953;932.3017;;;;
2023/04/23 00:28:52;;;;;;;4.5;2.9;;;;;;;11.11;74.93066;932.2473;;;;
2023/04/23 00:31:18;;;;;;;4.6;2.7;;;;;;;11.01;75.22168;932.1958;;;;
2023/04/23 00:33:46;;;;;;;6.1;3.1;;;;;;;10.94;75.74707;932.2084;;;;
2023/04/23 00:36:11;;;;;;;6;2.8;;;;;;;11.05;75.66406;932.1367;;;;
2023/04/23 00:38:41;;;;;;;6;3.4;;;;;;;11.17;75.47754;932.1309;;;;
2023/04/23 00:41:11;;;;;;;4.6;3.4;;;;;;;11.19;75.21875;932.1061;;;;
2023/04/23 00:43:36;;;;;;;5.1;3;;;;;;;11.16;74.98438;932.1277;;;;
2023/04/23 00:46:01;;;;;;;5.4;2.8;;;;;;;11.07;75.20996;932.1399;;;;
2023/04/23 00:48:26;;;;;;;3.3;2.7;;;;;;;11.1;74.97363;932.0889;;;;
2023/04/23 00:50:54;;;;;;;3;2.5;;;;;;;11.15;74.41113;932.0338;;;;
2023/04/23 00:53:19;;;;;;;6.7;2.7;;;;;;;11.16;74.46973;931.9469;;;;
2023/04/23 00:55:47;;;;;;;3.7;2.4;;;;;;;11;75.03809;932.0737;;;;
2023/04/23 00:58:12;;;;;;;4.7;2.6;;;;;;;11.02;75.58984;932.0572;;;;
2023/04/23 01:00:38;;;;;;;3;2.7;;;;;;;11.06;75.79199;931.9448;;;;
2023/04/23 01:03:04;;;;;;;4.3;2.4;;;;;;;11.18;74.97559;931.8998;;;;
2023/04/23 01:05:32;;;;;;;3.1;2.3;;;;;;;11.31;74.89453;931.8535;;;;
2023/04/23 01:07:57;;;;;;;6.7;3.3;;;;;;;11.37;74.72461;931.9934;;;;
2023/04/23 01:10:22;;;;;;;4.5;3.1;;;;;;;11.38;74.14258;931.9264;;;;
2023/04/23 01:12:47;;;;;;;5.3;2.9;;;;;;;11.37;73.99219;931.838;;;;
2023/04/23 01:15:12;;;;;;;6.3;3.2;;;;;;;11.35;74.0791;931.9233;;;;
2023/04/23 01:17:41;;;;;;;7.3;3.9;;;;;;;11.3;74.19727;931.8414;;;;
2023/04/23 01:20:08;;;;;;;6.3;3.7;;;;;;;11.11;74.8623;931.8156;;;;
2023/04/23 01:22:36;;;;;;;5.1;2.9;;;;;;;11.13;75.04785;931.8178;;;;
2023/04/23 01:25:01;;;;;;;4.3;2.8;;;;;;;11.1;74.91797;931.8084;;;;
2023/04/23 01:27:30;;;;;;;4.5;2.8;;;;;;;11.13;74.68262;931.7748;;;;
2023/04/23 01:29:55;;;;;;;4.1;3.1;;;;;;;11.05;74.84961;931.8285;;;;
2023/04/23 01:32:23;;;;;;;4.6;3.2;;;;;;;10.98;75.22852;931.7503;;;;
2023/04/23 01:34:48;;;;;;;4.4;2.7;;;;;;;10.87;75.63086;931.8773;;;;
2023/04/23 01:37:14;;;;;;;4.9;2.7;;;;;;;10.72;76.33691;931.8979;;;;
2023/04/23 01:39:39;;;;;;;5.2;2.6;;;;;;;10.69;76.70703;931.9283;;;;
2023/04/23 01:42:08;;;;;;;4.7;2.8;;;;;;;10.77;76.41309;931.9528;;;;
2023/04/23 01:44:33;;;;;;;3;2.7;;;;;;;10.74;76.5918;931.9051;;;;
2023/04/23 01:46:58;;;;;;;3.5;2.5;;;;;;;10.81;76.27246;931.9037;;;;
2023/04/23 01:49:23;;;;;;;4.2;2.7;;;;;;;10.76;76.28613;931.9664;;;;
2023/04/23 01:51:52;;;;;;;4.5;2.5;;;;;;;10.74;76.2832;931.9855;;;;
2023/04/23 01:54:17;;;;;;;3.6;2.5;;;;;;;10.74;76.44336;931.9258;;;;
2023/04/23 01:56:45;;;;;;;3.4;2.5;;;;;;;10.81;76.2041;931.9204;;;;
2023/04/23 01:59:10;;;;;;;6;3;;;;;;;10.98;75.49023;931.791;;;;
2023/04/23 02:01:37;;;;;;;8.2;2.6;;;;;;;10.93;75.61914;931.8557;;;;
2023/04/23 02:04:03;;;;;;;4.1;2.5;;;;;;;10.87;75.72266;931.8318;;;;
2023/04/23 02:06:30;;;;;;;4.1;2.5;;;;;;;10.88;76.08008;931.7347;;;;
2023/04/23 02:08:55;;;;;;;3.9;2.6;;;;;;;10.94;75.82617;931.8118;;;;
2023/04/23 02:11:20;;;;;;;4.2;2.3;;;;;;;11.01;75.34766;931.8052;;;;
2023/04/23 02:13:46;;;;;;;3.3;2.5;;;;;;;10.89;75.58984;931.7967;;;;
2023/04/23 02:16:15;;;;;;;4.2;2.7;;;;;;;11.01;75.38086;931.7519;;;;
2023/04/23 02:18:45;;;;;;;3.5;2.5;;;;;;;11.14;74.76563;931.7645;;;;
2023/04/23 02:21:17;;;;;;;4.4;2.7;;;;;;;11.26;74.32617;931.7109;;;;
2023/04/23 02:23:42;;;;;;;5.7;2.8;;;;;;;11.3;74.13965;931.7299;;;;
2023/04/23 02:26:08;;;;;;;3.8;2.4;;;;;;;11.3;74.74609;931.7147;;;;
2023/04/23 02:28:33;;;;;;;2.8;2.4;;;;;;;11.08;76.02344;931.685;;;;
2023/04/23 02:30:58;;;;;;;4.2;2.6;;;;;;;11.07;76.05469;931.6484;;;;
2023/04/23 02:33:24;;;;;;;4.3;2.4;;;;;;;11.11;75.49121;931.6211;;;;
2023/04/23 02:35:49;;;;;;;3.5;2.5;;;;;;;11.12;75.0127;931.6171;;;;
2023/04/23 02:38:17;;;;;;;5.8;2.6;;;;;;;11.16;74.79004;931.5923;;;;
2023/04/23 02:40:43;;;;;;;5;2.5;;;;;;;11.16;74.75684;931.6058;;;;
2023/04/23 02:43:09;;;;;;;2.9;1.8;;;;;;;11.2;74.31543;931.6264;;;;
2023/04/23 02:45:34;;;;;;;5;2;;;;;;;11.25;74.35938;931.6097;;;;
2023/04/23 02:48:00;;;;;;;3.3;2.4;;;;;;;11.31;74.19727;931.6669;;;;
2023/04/23 02:50:26;;;;;;;4.8;2.5;;;;;;;11.31;74.38184;931.6836;;;;
2023/04/23 02:52:53;;;;;;;3.2;2.5;;;;;;;11.31;74.58789;931.662;;;;
2023/04/23 02:55:45;;;;;;;3.1;2.4;;;;;;;11.33;74.64746;931.6859;;;;
2023/04/23 02:58:13;;;;;;;3.6;2.5;;;;;;;11.13;75.55273;931.6584;;;;
2023/04/23 03:00:38;;;;;;;3.5;2.6;;;;;;;11.12;75.77832;931.7087;;;;
2023/04/23 03:03:09;;;;;;;3.7;2.4;;;;;;;11.09;75.80762;931.7072;;;;
2023/04/23 03:05:39;;;;;;;5;2.8;;;;;;;11.09;76.5625;931.7686;;;;
2023/04/23 03:08:07;;;;;;;3.9;2.6;;;;;;;11.09;76.52832;931.771;;;;
2023/04/23 03:10:36;;;;;;;3.8;2.7;;;;;;;11.12;76.28125;931.7454;;;;
2023/04/23 03:13:01;;;;;;;4.8;2.8;;;;;;;11.21;75.77148;931.7531;;;;
2023/04/23 03:15:34;;;;;;;4.1;2.7;;;;;;;11.33;74.95703;931.8063;;;;
2023/04/23 03:18:03;;;;;;;3.1;2.6;;;;;;;11.39;75.08203;931.8929;;;;
2023/04/23 03:20:27;;;;;;;3.2;2.4;;;;;;;11.5;75.12402;931.9023;;;;
2023/04/23 03:22:52;;;;;;;4.7;2.7;;;;;;;11.53;75.24316;931.9236;;;;
2023/04/23 03:25:23;;;;;;;4.3;2.7;;;;;;;11.54;75.0957;931.8686;;;;
2023/04/23 03:27:45;;;;;;;3.9;2.4;;;;;;;11.56;75.2832;931.9084;;;;
2023/04/23 03:30:14;;;;;;;5;2.6;;;;;;;11.6;74.98047;931.9384;;;;
2023/04/23 03:32:42;;;;;;;5.5;2.6;;;;;;;11.65;75.83691;931.9345;;;;
2023/04/23 03:35:08;;;;;;;5.3;3;;;;;;;11.69;75.31543;931.908;;;;
2023/04/23 03:37:32;;;;;;;4.5;2.6;;;;;;;11.66;75.33496;931.9338;;;;
2023/04/23 03:40:05;;;;;;;5.3;2.6;;;;;;;11.69;75.27246;931.9534;;;;
2023/04/23 03:42:28;;;;;;;4.7;2.7;;;;;;;11.69;75.12207;931.9152;;;;
2023/04/23 03:44:53;;;;;;;6.4;2.7;;;;;;;11.61;75.94238;931.948;;;;
2023/04/23 03:49:57;;;;;;;4;2.6;;;;;;;11.41;76.7666;932.0514;;;;
2023/04/23 03:52:22;;;;;;;3.6;2.6;;;;;;;11.49;76.63281;932.0673;;;;
2023/04/23 03:54:48;;;;;;;2.7;2.4;;;;;;;11.56;76.74707;932.0981;;;;
2023/04/23 03:57:13;;;;;;;5.9;2.4;;;;;;;11.54;76.41211;932.1365;;;;
2023/04/23 03:59:39;;;;;;;6.5;2.6;;;;;;;11.55;76.91895;932.1852;;;;
2023/04/23 04:02:33;;;;;;;4.4;2.6;;;;;;;11.65;77.45117;932.2137;;;;
2023/04/23 04:05:03;;;;;;;3.8;2.4;;;;;;;11.68;77.39844;932.2733;;;;
2023/04/23 04:07:28;;;;;;;3.6;2.7;;;;;;;11.74;77.60352;932.3448;;;;
2023/04/23 04:09:56;;;;;;;2.8;2.5;;;;;;;11.67;77.62598;932.4073;;;;
2023/04/23 04:12:21;;;;;;;3.6;2.7;;;;;;;11.62;77.91406;932.4547;;;;
2023/04/23 04:14:51;;;;;;;5;3;;;;;;;11.53;79.2959;932.4331;;;;
2023/04/23 04:17:16;;;;;;;6.6;3.1;;;;;;;11.49;79.57227;932.5362;;;;
2023/04/23 04:19:44;;;;;;;5.2;2.8;;;;;;;11.53;79.35156;932.4881;;;;
2023/04/23 04:22:09;;;;;;;4.6;3.6;;;;;;;11.55;78.83008;932.5144;;;;
2023/04/23 04:24:36;;;;;;;5;3.9;;;;;;;11.68;77.97168;932.4839;;;;
2023/04/23 04:28:16;;;;;;;3.5;2.9;;;;;;;11.64;79.64551;932.3939;;;;
2023/04/23 04:30:46;;;;;;;4.5;3;;;;;;;11.48;81.57422;932.1136;;;;
2023/04/23 04:33:10;;;;;;;5.3;3.1;;;;;;;11.26;82.83691;932.0114;;;;
2023/04/23 04:35:38;;;;;;;5.5;3;;;;;;;11.04;84.2002;931.9695;;;;
2023/04/23 04:38:03;;;;;;;4.2;2.5;;;;;;;11.02;85.68262;932.0118;;;;
2023/04/23 04:40:33;;;;;;;5.4;3.5;;;;;;;10.88;87.07129;932.1464;;;;
2023/04/23 04:43:04;;;;;;;4.7;2.9;;;;;;;10.81;88.18945;932.2111;;;;
2023/04/23 04:45:28;;;;;;;3.7;3;;;;;;;10.67;89.24512;932.1878;;;;
2023/04/23 04:47:53;;;;;;;3.6;2.8;;;;;;;10.63;90.17383;932.2874;;;;
2023/04/23 04:50:21;;;;;;;5;3.6;;;;;;;10.58;90.97559;932.3014;;;;
2023/04/23 04:52:51;;;;;;;3.7;3.2;;;;;;;10.43;91.54785;932.3627;;;;
2023/04/23 04:55:17;;;;;;;3.2;2.8;;;;;;;10.43;90.74707;932.2823;;;;
2023/04/23 04:57:42;;;;;;;4.2;3.3;;;;;;;10.48;91.10059;932.2903;;;;
2023/04/23 05:00:14;;;;;;;5.7;3.3;;;;;;;10.53;91.62598;932.3158;;;;
2023/04/23 05:02:38;;;;;;;7;3.6;;;;;;;10.47;92.78809;932.3867;;;;
2023/04/23 05:05:12;;;;;;;5.9;3.4;;;;;;;10.5;93.10254;932.479;;;;
2023/04/23 05:07:40;;;;;;;5.7;4.1;;;;;;;10.68;92.42188;932.4426;;;;
2023/04/23 05:10:05;;;;;;;6.4;3.5;;;;;;;10.75;92.00488;932.4633;;;;
2023/04/23 05:12:34;;;;;;;4.1;3.5;;;;;;;10.81;92.29102;932.4951;;;;
2023/04/23 05:15:05;;;;;;;4.4;3;;;;;;;10.89;92.45508;932.5406;;;;
2023/04/23 05:17:37;;;;;;;5.2;3.3;;;;;;;11.03;92.07422;932.5559;;;;
2023/04/23 05:20:09;;;;;;;4.2;3;;;;;;;11.16;91.39355;932.5708;;;;
2023/04/23 05:22:33;;;;;;;3.9;3.1;;;;;;;11.26;90.83203;932.6115;;;;
2023/04/23 05:25:01;;;;;;;6.5;3.9;;;;;;;11.26;90.7959;932.6163;;;;
2023/04/23 05:27:26;;;;;;;4;3.5;;;;;;;11.32;90.41992;932.6504;;;;
2023/04/23 05:29:55;;;;;;;4.1;3.7;;;;;;;11.46;90.17578;932.639;;;;
2023/04/23 05:32:24;;;;;;;6.9;3.4;;;;;;;11.56;89.57617;932.6826;;;;
2023/04/23 05:34:49;;;;;;;5.7;3.2;;;;;;;11.63;88.69824;932.6523;;;;
2023/04/23 05:37:19;;;;;;;6.1;3.7;;;;;;;11.76;88.23145;932.6677;;;;
2023/04/23 05:39:45;;;;;;;4.2;3.4;;;;;;;11.82;87.44531;932.6697;;;;
2023/04/23 05:45:44;;;;;;;5.3;3.9;;;;;;;12.06;87.84766;932.7678;;;;
2023/04/23 05:48:13;;;;;;;5.8;3.2;;;;;;;12.02;87.94336;932.8206;;;;
2023/04/23 05:50:38;;;;;;;4.6;3.3;;;;;;;12.07;87.99805;932.7813;;;;
2023/04/23 05:53:05;;;;;;;5.9;3.6;;;;;;;12.11;88.11035;932.8337;;;;
2023/04/23 05:55:29;;;;;;;3.6;3.1;;;;;;;12.15;87.13379;932.8095;;;;
2023/04/23 05:57:56;;;;;;;5.9;3.2;;;;;;;12.24;87.45996;932.8045;;;;
2023/04/23 06:00:21;;;;;;;4.9;3.2;;;;;;;12.25;87.09277;932.7438;;;;
2023/04/23 06:02:51;;;;;;;4.9;3.4;;;;;;;12.29;86.79395;932.7539;;;;
2023/04/23 06:05:21;;;;;;;4;3.2;;;;;;;12.39;86.48145;932.7286;;;;
2023/04/23 06:07:46;;;;;;;4.1;3.2;;;;;;;12.21;87.04004;932.723;;;;
2023/04/23 06:10:16;;;;;;;5.6;3.4;;;;;;;12.18;87.08203;932.7352;;;;
2023/04/23 06:12:45;;;;;;;6.2;4.8;;;;;;;12.17;87.3877;932.7703;;;;
2023/04/23 06:15:10;;;;;;;3.9;3.5;;;;;;;12.13;87.03711;932.7769;;;;
2023/04/23 06:17:35;;;;;;;5.3;3.7;;;;;;;12.16;86.32031;932.7679;;;;
2023/04/23 06:20:00;;;;;;;5.7;3.2;;;;;;;12.24;86.16406;932.7806;;;;
2023/04/23 06:22:32;;;;;;;4.9;3.1;;;;;;;12.35;85.55566;932.7385;;;;
2023/04/23 06:25:03;;;;;;;6.7;3.5;;;;;;;12.6;85.13281;932.753;;;;
2023/04/23 06:27:28;;;;;;;3.7;3.3;;;;;;;12.78;84.61914;932.7031;;;;
2023/04/23 06:29:54;;;;;;;4.3;3.3;;;;;;;;;;;;;
2023/04/23 06:32:19;;;;;;;4.5;3.2;;;;;;;;;;;;;
2023/04/23 06:34:44;;;;;;;4.2;3.3;;;;;;;;;;;;;
2023/04/23 06:37:09;;;;;;;3.9;3.5;;;;;;;;;;;;;
2023/04/23 06:39:34;;;;;;;5;3.4;;;;;;;;;;;;;
2023/04/23 06:42:00;;;;;;;5.9;3.7;;;;;;;;;;;;;
2023/04/23 06:44:24;;;;;;;4.6;3.2;;;;;;;;;;;;;
2023/04/23 06:46:51;;;;;;;5.9;5;;;;;;;;;;;;;
2023/04/23 06:49:16;;;;;;;4.9;3.5;;;;;;;;;;;;;
2023/04/23 06:51:43;;;;;;;4.4;3.7;;;;;;;;;;;;;
2023/04/23 06:54:07;;;;;;;4;3.1;;;;;;;;;;;;;
2023/04/23 06:56:33;;;;;;;4.1;2.8;;;;;;;;;;;;;
2023/04/23 06:58:58;;;;;;;4.2;2.8;;;;;;;;;;;;;
2023/04/23 07:01:24;;;;;;;4.2;2.7;;;;;;;;;;;;;
2023/04/23 07:03:53;;;;;;;3.3;2.4;;;;;;;;;;;;;
2023/04/23 07:06:14;;;;;;;2.8;2.4;;;;;;;;;;;;;
2023/04/23 07:08:40;;;;;;;3;2.3;;;;;;;;;;;;;
2023/04/23 07:11:05;;;;;;;3.8;2.6;;;;;;;;;;;;;
2023/04/23 07:13:31;;;;;;;2.8;2.5;;;;;;;;;;;;;
2023/04/23 07:16:32;;;;;;;3.5;2.5;;;;;;;;;;;;;
2023/04/23 07:18:53;;;;;;;3.5;2.6;;;;;;;;;;;;;
2023/04/23 07:21:19;;;;;;;4.3;2.8;;;;;;;;;;;;;
2023/04/23 07:23:44;;;;;;;4.9;3;;;;;;;;;;;;;
2023/04/23 07:26:10;;;;;;;3.8;2.9;;;;;;;;;;;;;
2023/04/23 07:28:35;;;;;;;3.2;2.6;;;;;;;;;;;;;
2023/04/23 07:31:01;;;;;;;2.6;2.4;;;;;;;;;;;;;
2023/04/23 07:33:26;;;;;;;4.1;2.5;;;;;;;;;;;;;
2023/04/23 07:35:53;;;;;;;2.9;2.5;;;;;;;;;;;;;
2023/04/23 07:38:18;;;;;;;4.2;2.4;;;;;;;;;;;;;
2023/04/23 07:40:43;;;;;;;4.6;2.2;;;;;;;;;;;;;
2023/04/23 07:43:08;;;;;;;3.8;2.2;;;;;;;;;;;;;
2023/04/23 07:45:36;;;;;;;4.4;2;;;;;;;;;;;;;
2023/04/23 07:48:01;;;;;;;3;2.3;;;;;;;;;;;;;
2023/04/23 07:50:29;;;;;;;3.2;2.4;;;;;;;;;;;;;
2023/04/23 07:52:54;;;;;;;2.6;2.3;;;;;;;;;;;;;
2023/04/23 07:55:21;;;;;;;3.1;2.4;;;;;;;;;;;;;
2023/04/23 07:57:46;;;;;;;2.9;2.6;;;;;;;;;;;;;
2023/04/23 08:00:13;;;;;;;3;2.5;;;;;;;;;;;;;
2023/04/23 08:02:38;;;;;;;3.3;2.4;;;;;;;;;;;;;
2023/04/23 08:05:04;;;;;;;3.1;2.6;;;;;;;;;;;;;
2023/04/23 08:07:30;;;;;;;4;2.5;;;;;;;;;;;;;
2023/04/23 08:10:01;;;;;;;3.8;2.7;;;;;;;;;;;;;
2023/04/23 08:12:21;;;;;;;3.3;2.7;;;;;;;;;;;;;
2023/04/23 08:14:49;;;;;;;4.3;2.9;;;;;;;;;;;;;
2023/04/23 08:17:13;;;;;;;5.4;2.3;;;;;;;;;;;;;
2023/04/23 08:19:40;;;;;;;4;2.6;;;;;;;;;;;;;
2023/04/23 08:22:05;;;;;;;3;2.5;;;;;;;;;;;;;
2023/04/23 08:24:30;;;;;;;2.7;2.3;;;;;;;;;;;;;
2023/04/23 08:26:56;;;;;;;3.9;2.6;;;;;;;;;;;;;
2023/04/23 08:29:20;;;;;;;2.7;2.5;;;;;;;;;;;;;
2023/04/23 08:31:46;;;;;;;2.6;2.3;;;;;;;;;;;;;
2023/04/23 08:34:13;;;;;;;5.2;2.7;;;;;;;;;;;;;
2023/04/23 08:36:37;;;;;;;3.1;2.2;;;;;;;;;;;;;
2023/04/23 08:39:04;;;;;;;3.4;2.6;;;;;;;;;;;;;
2023/04/23 08:41:29;;;;;;;2.4;2.2;;;;;;;;;;;;;
2023/04/23 08:43:55;;;;;;;4.3;3;;;;;;;;;;;;;
2023/04/23 08:46:21;;;;;;;2.3;2.1;;;;;;;;;;;;;
2023/04/23 08:48:46;;;;;;;3;2.1;;;;;;;;;;;;;
2023/04/23 08:51:13;;;;;;;2.9;2.1;;;;;;;;;;;;;
2023/04/23 08:53:38;;;;;;;4.2;2.3;;;;;;;;;;;;;
2023/04/23 08:56:03;;;;;;;2.8;2.5;;;;;;;;;;;;;
2023/04/23 08:58:28;;;;;;;2.9;2.4;;;;;;;;;;;;;
2023/04/23 09:00:56;;;;;;;3.6;2.3;;;;;;;;;;;;;
2023/04/23 09:03:21;;;;;;;2.3;1.7;;;;;;;;;;;;;
2023/04/23 09:05:49;;;;;;;2.2;1.9;;;;;;;;;;;;;
2023/04/23 09:08:12;;;;;;;1.8;1.5;;;;;;;;;;;;;
2023/04/23 09:10:39;;;;;;;2.3;1.5;;;;;;;;;;;;;
2023/04/23 09:13:04;;;;;;;2.4;1.5;;;;;;;;;;;;;
2023/04/23 09:15:35;;;;;;;1.9;1.6;;;;;;;;;;;;;
2023/04/23 09:17:57;;;;;;;2.1;1.7;;;;;;;;;;;;;
2023/04/23 09:20:24;;;;;;;2;1.7;;;;;;;;;;;;;
2023/04/23 09:22:49;;;;;;;2.5;1.9;;;;;;;;;;;;;
2023/04/23 09:25:16;;;;;;;2.4;1.8;;;;;;;;;;;;;
2023/04/23 09:27:40;;;;;;;2;1.8;;;;;;;;;;;;;
2023/04/23 09:30:09;;;;;;;5.5;1.8;;;;;;;;;;;;;
2023/04/23 09:32:33;;;;;;;1.7;1.5;;;;;;;;;;;;;
2023/04/23 09:34:58;;;;;;;2.3;1.6;;;;;;;;;;;;;
2023/04/23 09:37:22;;;;;;;3.6;1.9;;;;;;;;;;;;;
2023/04/23 09:39:52;;;;;;;1.5;1.4;;;;;;;;;;;;;
2023/04/23 09:42:13;;;;;;;2.1;1.9;;;;;;;;;;;;;
2023/04/23 09:44:39;;;;;;;2;1.7;;;;;;;;;;;;;
2023/04/23 09:47:05;;;;;;;2.7;1.6;;;;;;;;;;;;;
2023/04/23 09:49:30;;;;;;;1.7;1.6;;;;;;;;;;;;;
2023/04/23 09:51:55;;;;;;;2.6;1.7;;;;;;;;;;;;;
2023/04/23 09:54:21;;;;;;;1.4;1.3;;;;;;;;;;;;;
2023/04/23 09:56:46;;;;;;;3.6;1.8;;;;;;;;;;;;;
2023/04/23 09:59:12;;;;;;;2.1;1.7;;;;;;;;;;;;;
2023/04/23 10:01:38;;;;;;;2.2;1.4;;;;;;;;;;;;;
2023/04/23 10:04:03;;;;;;;1.9;1.4;;;;;;;;;;;;;
2023/04/23 10:06:30;;;;;;;1.9;1.3;;;;;;;;;;;;;
2023/04/23 10:08:55;;;;;;;1.8;1.6;;;;;;;;;;;;;
2023/04/23 10:11:20;;;;;;;2.3;1.6;;;;;;;;;;;;;
2023/04/23 10:13:45;;;;;;;3.2;1.9;;;;;;;;;;;;;
2023/04/23 10:16:11;;;;;;;2.5;1.8;;;;;;;;;;;;;
2023/04/23 10:18:37;;;;;;;2.2;1.6;;;;;;;;;;;;;
2023/04/23 10:21:02;;;;;;;2;1.6;;;;;;;;;;;;;
2023/04/23 10:23:28;;;;;;;2.4;1.7;;;;;;;;;;;;;
2023/04/23 10:25:53;;;;;;;2.1;1.7;;;;;;;;;;;;;
2023/04/23 10:28:20;;;;;;;2.2;1.4;;;;;;;;;;;;;
2023/04/23 10:30:46;;;;;;;2.3;1.6;;;;;;;;;;;;;
2023/04/23 10:33:11;;;;;;;2.1;1.6;;;;;;;;;;;;;
2023/04/23 10:35:37;;;;;;;1.5;1.4;;;;;;;;;;;;;
2023/04/23 10:38:02;;;;;;;1.8;1.6;;;;;;;;;;;;;
2023/04/23 10:40:30;;;;;;;1.6;1.4;;;;;;;;;;;;;
2023/04/23 10:42:56;;;;;;;2;1.6;;;;;;;;;;;;;
2023/04/23 10:45:21;;;;;;;1.7;1.5;;;;;;;;;;;;;
2023/04/23 10:47:46;;;;;;;2.1;1.4;;;;;;;;;;;;;
2023/04/23 10:50:11;;;;;;;1.5;1.4;;;;;;;;;;;;;
2023/04/23 10:52:37;;;;;;;1.6;1.5;;;;;;;;;;;;;
2023/04/23 10:55:02;;;;;;;2;1.5;;;;;;;;;;;;;
2023/04/23 10:57:27;;;;;;;2;1.3;;;;;;;;;;;;;
2023/04/23 10:59:52;;;;;;;2.1;1.4;;;;;;;;;;;;;
2023/04/23 11:02:20;;;;;;;1.5;1.4;;;;;;;;;;;;;
2023/04/23 11:04:45;;;;;;;2.1;1.5;;;;;;;;;;;;;
2023/04/23 11:07:11;;;;;;;4.2;2;;;;;;;;;;;;;
2023/04/23 11:09:36;;;;;;;2.6;1.7;;;;;;;;;;;;;
2023/04/23 11:12:01;;;;;;;1.9;1.2;;;;;;;;;;;;;
2023/04/23 11:14:26;;;;;;;1.5;1.3;;;;;;;;;;;;;
2023/04/23 11:16:51;;;;;;;1.8;1.5;;;;;;;;;;;;;
2023/04/23 11:19:16;;;;;;;1.6;1.3;;;;;;;;;;;;;
2023/04/23 11:21:41;;;;;;;1.8;1.3;;;;;;;;;;;;;
2023/04/23 11:24:06;;;;;;;1.7;1.4;;;;;;;;;;;;;
2023/04/23 11:26:33;;;;;;;1.5;1.4;;;;;;;;;;;;;
2023/04/23 11:28:58;;;;;;;1.8;1.4;;;;;;;;;;;;;
2023/04/23 11:31:24;;;;;;;1.8;1.4;;;;;;;;;;;;;
2023/04/23 11:33:49;;;;;;;1.6;1.5;;;;;;;;;;;;;
2023/04/23 11:36:16;;;;;;;1.9;1.3;;;;;;;;;;;;;
2023/04/23 11:38:41;;;;;;;2;1.3;;;;;;;;;;;;;
2023/04/23 11:41:08;;;;;;;3.5;1.8;;;;;;;;;;;;;
2023/04/23 11:43:34;;;;;;;1.9;1.4;;;;;;;;;;;;;
2023/04/23 11:46:00;;;;;;;2.5;1.4;;;;;;;;;;;;;
2023/04/23 11:48:25;;;;;;;1.8;1.4;;;;;;;;;;;;;
2023/04/23 11:50:51;;;;;;;2;1.4;;;;;;;;;;;;;
2023/04/23 11:53:16;;;;;;;1.5;1.3;;;;;;;;;;;;;
2023/04/23 11:55:42;;;;;;;1.7;1.5;;;;;;;;;;;;;
2023/04/23 11:58:06;;;;;;;1.6;1.3;;;;;;;;;;;;;
2023/04/23 12:00:36;;;;;;;1.5;1.1;;;;;;;;;;;;;
2023/04/23 12:03:07;;;;;;;1.5;1.4;;;;;;;;;;;;;
2023/04/23 12:05:32;;;;;;;1.5;1.2;;;;;;;;;;;;;
2023/04/23 12:07:57;;;;;;;3;1.5;;;;;;;;;;;;;
2023/04/23 12:10:23;;;;;;;1.9;1.3;;;;;;;;;;;;;
2023/04/23 12:12:48;;;;;;;2.2;1.3;;;;;;;;;;;;;
2023/04/23 12:15:15;;;;;;;2.8;1.5;;;;;;;;;;;;;
2023/04/23 12:17:40;;;;;;;1.5;1.3;;;;;;;;;;;;;
2023/04/23 12:20:07;;;;;;;1.5;1.4;;;;;;;;;;;;;
2023/04/23 12:22:32;;;;;;;1.4;1.2;;;;;;;;;;;;;
2023/04/23 12:24:59;;;;;;;2.2;1.6;;;;;;;;;;;;;
2023/04/23 12:27:26;;;;;;;2;1.3;;;;;;;;;;;;;
2023/04/23 12:29:50;;;;;;;1.5;1.3;;;;;;;;;;;;;
2023/04/23 12:32:15;;;;;;;2.2;1.5;;;;;;;;;;;;;
2023/04/23 12:34:40;;;;;;;1.4;1.2;;;;;;;;;;;;;
2023/04/23 12:37:06;;;;;;;1.4;1.3;;;;;;;;;;;;;
2023/04/23 12:39:32;;;;;;;1.4;1.2;;;;;;;;;;;;;
2023/04/23 12:42:01;;;;;;;1.4;1.3;;;;;;;;;;;;;
2023/04/23 12:44:23;;;;;;;1.9;1.4;;;;;;;;;;;;;
2023/04/23 12:46:51;;;;;;;2.4;1.3;;;;;;;;;;;;;
2023/04/23 12:49:16;;;;;;;1.8;1.4;;;;;;;;;;;;;
2023/04/23 12:51:41;;;;;;;1.9;1.5;;;;;;;;;;;;;
2023/04/23 12:54:06;;;;;;;2.1;1.5;;;;;;;;;;;;;
2023/04/23 12:56:35;;;;;;;2;1.3;;;;;;;;;;;;;
2023/04/23 12:59:00;;;;;;;1.6;1.5;;;;;;;;;;;;;
2023/04/23 13:01:24;;;;;;;2.4;1.6;;;;;;;;;;;;;
2023/04/23 13:03:49;;;;;;;1.6;1.3;;;;;;;;;;;;;
2023/04/23 13:06:14;;;;;;;1.6;1.5;;;;;;;;;;;;;
2023/04/23 13:08:40;;;;;;;3.1;1.4;;;;;;;;;;;;;
2023/04/23 13:11:05;;;;;;;1.5;1.4;;;;;;;;;;;;;
2023/04/23 13:13:31;;;;;;;1.4;1.3;;;;;;;;;;;;;
2023/04/23 13:15:56;;;;;;;2.2;1.4;;;;;;;;;;;;;
2023/04/23 13:18:23;;;;;;;1.6;1.5;;;;;;;;;;;;;
2023/04/23 13:20:48;;;;;;;2.8;1.6;;;;;;;;;;;;;
2023/04/23 13:23:14;;;;;;;2.1;1.5;;;;;;;;;;;;;
2023/04/23 13:25:39;;;;;;;1.9;1.4;;;;;;;;;;;;;
2023/04/23 13:28:05;;;;;;;1.6;1.5;;;;;;;;;;;;;
2023/04/23 13:30:30;;;;;;;1.6;1.5;;;;;;;;;;;;;
2023/04/23 13:32:57;;;;;;;2.1;1.9;;;;;;;;;;;;;
2023/04/23 13:35:21;;;;;;;1.7;1.6;;;;;;;;;;;;;
2023/04/23 13:37:48;;;;;;;1.8;1.7;;;;;;;;;;;;;
2023/04/23 13:40:14;;;;;;;2.1;1.5;;;;;;;;;;;;;
2023/04/23 13:42:39;;;;;;;1.6;1.5;;;;;;;;;;;;;
2023/04/23 13:45:05;;;;;;;1.9;1.6;;;;;;;;;;;;;
2023/04/23 13:47:33;;;;;;;2.6;1.7;;;;;;;;;;;;;
2023/04/23 13:49:57;;;;;;;2.8;1.9;;;;;;;;;;;;;
2023/04/23 13:52:22;;;;;;;1.8;1.7;;;;;;;;;;;;;
2023/04/23 13:54:49;;;;;;;1.9;1.5;;;;;;;;;;;;;
2023/04/23 13:57:14;;;;;;;1.9;1.6;;;;;;;;;;;;;
2023/04/23 13:59:39;;;;;;;2.4;1.8;;;;;;;;;;;;;
2023/04/23 14:02:05;;;;;;;1.9;1.5;;;;;;;;;;;;;
2023/04/23 14:04:30;;;;;;;1.6;1.5;;;;;;;;;;;;;
2023/04/23 14:06:55;;;;;;;3.5;1.6;;;;;;;;;;;;;
2023/04/23 14:09:21;;;;;;;1.7;1.6;;;;;;;;;;;;;
2023/04/23 14:11:48;;;;;;;1.5;1.4;;;;;;;;;;;;;
2023/04/23 14:14:13;;;;;;;2.6;1.5;;;;;;;;;;;;;
2023/04/23 14:16:44;;;;;;;1.6;1.5;;;;;;;;;;;;;
2023/04/23 14:19:12;;;;;;;2.4;1.6;;;;;;;;;;;;;
2023/04/23 14:21:37;;;;;;;2.2;1.9;;;;;;;;;;;;;
2023/04/23 14:24:05;;;;;;;2.3;2.1;;;;;;;;;;;;;
2023/04/23 14:26:34;;;;;;;3.3;1.9;;;;;;;;;;;;;
2023/04/23 14:28:59;;;;;;;2.1;1.9;;;;;;;;;;;;;
2023/04/23 14:31:24;;;;;;;2.6;1.8;;;;;;;;;;;;;
2023/04/23 14:33:50;;;;;;;2.9;1.9;;;;;;;;;;;;;
2023/04/23 14:36:15;;;;;;;2.2;2;;;;;;;;;;;;;
2023/04/23 14:38:42;;;;;;;2.4;2;;;;;;;;;;;;;
2023/04/23 14:41:08;;;;;;;2.1;1.9;;;;;;;;;;;;;
2023/04/23 14:43:33;;;;;;;2.1;1.8;;;;;;;;;;;;;
2023/04/23 14:45:58;;;;;;;2.1;1.9;;;;;;;;;;;;;
2023/04/23 14:48:23;;;;;;;2.9;2;;;;;;;;;;;;;
2023/04/23 14:50:48;;;;;;;2.5;2;;;;;;;;;;;;;
2023/04/23 14:53:15;;;;;;;2.7;2.1;;;;;;;;;;;;;
2023/04/23 14:55:42;;;;;;;2.4;2;;;;;;;;;;;;;
2023/04/23 14:58:07;;;;;;;3.6;2.9;;;;;;;;;;;;;
2023/04/23 15:00:32;;;;;;;5.1;2.6;;;;;;;;;;;;;
2023/04/23 15:03:01;;;;;;;5;2.4;;;;;;;;;;;;;
2023/04/23 15:05:26;;;;;;;4.4;2.3;;;;;;;;;;;;;
2023/04/23 15:07:52;;;;;;;4.1;3.3;;;;;;;;;;;;;
2023/04/23 15:10:17;;;;;;;4.2;3.3;;;;;;;;;;;;;
2023/04/23 15:12:45;;;;;;;3.8;2.9;;;;;;;;;;;;;
2023/04/23 15:15:09;;;;;;;3.9;2.6;;;;;;;;;;;;;
2023/04/23 15:17:36;;;;;;;2.8;2.4;;;;;;;;;;;;;
2023/04/23 15:20:02;;;;;;;4;2.3;;;;;;;;;;;;;
2023/04/23 15:22:30;;;;;;;2.5;2.1;;;;;;;;;;;;;
2023/04/23 15:24:55;;;;;;;2.2;2;;;;;;;;;;;;;
2023/04/23 15:27:20;;;;;;;2.1;1.9;;;;;;;;;;;;;
2023/04/23 15:29:45;;;;;;;2.7;2.2;;;;;;;;;;;;;
2023/04/23 15:32:13;;;;;;;4.7;2.3;;;;;;;;;;;;;
2023/04/23 15:34:38;;;;;;;2.5;2.2;;;;;;;;;;;;;
2023/04/23 15:37:04;;;;;;;2.9;2.3;;;;;;;;;;;;;
2023/04/23 15:39:29;;;;;;;3.1;2.6;;;;;;;;;;;;;
2023/04/23 15:41:54;;;;;;;4;2.5;;;;;;;;;;;;;
2023/04/23 15:44:19;;;;;;;2.7;2.3;;;;;;;;;;;;;
2023/04/23 15:46:45;;;;;;;3.3;2.6;;;;;;;;;;;;;
2023/04/23 15:49:10;;;;;;;3.9;2.8;;;;;;;;;;;;;
2023/04/23 15:51:35;;;;;;;3.1;2.6;;;;;;;;;;;;;
2023/04/23 15:54:01;;;;;;;2.5;2.3;;;;;;;;;;;;;
2023/04/23 15:56:28;;;;;;;3.2;2.5;;;;;;;;;;;;;
2023/04/23 15:58:53;;;;;;;2.9;2.2;;;;;;;;;;;;;
2023/04/23 16:01:18;;;;;;;3.2;2.7;;;;;;;;;;;;;
2023/04/23 16:03:43;;;;;;;3.7;2.5;;;;;;;;;;;;;
2023/04/23 16:06:10;;;;;;;3.7;2.6;;;;;;;;;;;;;
2023/04/23 16:08:35;;;;;;;3.2;2.5;;;;;;;;;;;;;
2023/04/23 16:11:02;;;;;;;3.3;2.3;;;;;;;;;;;;;
2023/04/23 16:13:27;;;;;;;4.7;2.6;;;;;;;;;;;;;
2023/04/23 16:15:54;;;;;;;7.7;4.9;;;;;;;;;;;;;
2023/04/23 16:18:19;;;;;;;6.5;4.6;;;;;;;;;;;;;
2023/04/23 16:20:44;;;;;;;4.8;3.3;;;;;;;;;;;;;
2023/04/23 16:23:09;;;;;;;2.9;2.7;;;;;;;;;;;;;
2023/04/23 16:25:37;;;;;;;2.8;2.4;;;;;;;;;;;;;
2023/04/23 16:28:01;;;;;;;5.6;2.5;;;;;;;;;;;;;
2023/04/23 16:30:26;;;;;;;2.7;2.5;;;;;;;;;;;;;
2023/04/23 16:32:51;;;;;;;4.3;2.5;;;;;;;;;;;;;
2023/04/23 16:35:17;;;;;;;3.9;2.9;;;;;;;;;;;;;
2023/04/23 16:37:43;;;;;;;3.3;2.8;;;;;;;;;;;;;
2023/04/23 16:40:09;;;;;;;3.7;3;;;;;;;;;;;;;
2023/04/23 16:42:34;;;;;;;3.2;2.9;;;;;;;;;;;;;
2023/04/23 16:45:01;;;;;;;3.5;2.9;;;;;;;;;;;;;
2023/04/23 16:47:26;;;;;;;3.2;2.8;;;;;;;;;;;;;
2023/04/23 16:49:53;;;;;;;3.6;3.1;;;;;;;;;;;;;
2023/04/23 16:52:18;;;;;;;3.6;3.1;;;;;;;;;;;;;
2023/04/23 16:54:43;;;;;;;4.3;3.3;;;;;;;;;;;;;
2023/04/23 16:57:09;;;;;;;3.2;2.9;;;;;;;;;;;;;
2023/04/23 16:59:36;;;;;;;3.8;2.7;;;;;;;;;;;;;
2023/04/23 17:02:00;;;;;;;3.9;2.5;;;;;;;;;;;;;
2023/04/23 17:04:29;;;;;;;5.1;3.5;;;;;;;;;;;;;
2023/04/23 17:06:53;;;;;;;10.2;6.1;;;;;;;;;;;;;
2023/04/23 17:09:20;;;;;;;4.8;3.9;;;;;;;;;;;;;
2023/04/23 17:11:46;;;;;;;3.6;2.9;;;;;;;;;;;;;
2023/04/23 17:14:12;;;;;;;6.2;4.7;;;;;;;;;;;;;
2023/04/23 17:16:36;;;;;;;8.7;5.8;;;;;;;;;;;;;
2023/04/23 17:19:02;;;;;;;4.4;3.9;;;;;;;;;;;;;
2023/04/23 17:21:27;;;;;;;6.5;4.1;;;;;;;;;;;;;
2023/04/23 17:23:53;;;;;;;3.6;2.9;;;;;;;;;;;;;
2023/04/23 17:26:18;;;;;;;3.2;2.6;;;;;;;;;;;;;
2023/04/23 17:28:44;;;;;;;2.8;2.6;;;;;;;;;;;;;
2023/04/23 17:31:10;;;;;;;5.4;2.9;;;;;;;;;;;;;
2023/04/23 17:33:35;;;;;;;3.9;3.1;;;;;;;;;;;;;
2023/04/23 17:36:00;;;;;;;3.5;2.6;;;;;;;;;;;;;
2023/04/23 17:38:27;;;;;;;3.7;3.3;;;;;;;;;;;;;
2023/04/23 17:40:52;;;;;;;3.7;3.3;;;;;;;;;;;;;
2023/04/23 17:43:17;;;;;;;5.3;3.9;;;;;;;;;;;;;
2023/04/23 17:45:44;;;;;;;5.4;4.2;;;;;;;;;;;;;
2023/04/23 17:48:08;;;;;;;5;3.6;;;;;;;;;;;;;
2023/04/23 17:50:34;;;;;;;4.3;3.9;;;;;;;;;;;;;
2023/04/23 17:53:00;;;;;;;4.2;3.8;;;;;;;;;;;;;
2023/04/23 17:55:25;;;;;;;4.1;3.7;;;;;;;;;;;;;
2023/04/23 17:57:52;;;;;;;4.8;3.7;;;;;;;;;;;;;
2023/04/23 18:00:17;;;;;;;6.7;3.9;;;;;;;;;;;;;